Terminal Aerodrome Forecast
Issued by NWS

Home | Current Version | Previous Version | Text Only | Print | Product List | Glossary On
Versions: 1 2 3 4 5 6 7 8 9 10 11 12 13 14 15 16 17 18
000
FTUS44 KSJT 310100 AAA
TAFSOA
TAF AMD
KSOA 310114Z 3101/3124 VRB06KT P6SM VCTS SCT080CB
      TEMPO 3101/3103 VRB25G35KT 2SM TSRA BKN050CB
     FM310300 17005KT P6SM SCT250
     FM311500 18008KT P6SM FEW070=

USA.gov is the U.S. government's official web portal to all federal, state and local government web resources and services.